Time;durP1;ratioP1;P1;durP2;ratioP2;P2;SDS_P1;SDS_P2;PMS_P1;PMS_P2;Temp;Humidity;BMP_temperature;BMP_pressure;BME280_temperature;BME280_humidity;BME280_pressure;Samples;Min_cycle;Max_cycle;Signal;HPM_P1;HPM_P2
2023/03/26 00:01:06;;;;;;;26.42;6.55;;;;;;;5.98;100.00;99463.84;4968723;28;20036;-78
2023/03/26 00:03:33;;;;;;;19.27;6.00;;;;;;;5.97;100.00;99470.16;4962230;28;20189;-77
2023/03/26 00:06:02;;;;;;;23.38;5.57;;;;;;;6.00;100.00;99464.53;4959903;28;20043;-78
2023/03/26 00:08:28;;;;;;;20.35;5.43;;;;;;;6.01;100.00;99463.50;4957506;28;20038;-78
2023/03/26 00:10:53;;;;;;;25.65;5.55;;;;;;;6.03;100.00;99471.31;4975343;28;20547;-78
2023/03/26 00:13:19;;;;;;;16.63;4.70;;;;;;;5.97;100.00;99459.56;4959365;28;20077;-78
2023/03/26 00:15:45;;;;;;;18.25;6.22;;;;;;;5.98;100.00;99471.81;4957527;28;20190;-78
2023/03/26 00:18:10;;;;;;;22.92;5.97;;;;;;;5.87;100.00;99472.06;4952526;28;20043;-77
2023/03/26 00:20:37;;;;;;;21.67;4.80;;;;;;;5.98;100.00;99484.22;4956945;28;20031;-77
2023/03/26 00:23:03;;;;;;;31.52;6.65;;;;;;;5.91;100.00;99487.47;4964272;28;20065;-77
2023/03/26 00:25:30;;;;;;;20.08;4.20;;;;;;;5.91;100.00;99484.84;4957749;28;20654;-78
2023/03/26 00:27:56;;;;;;;17.48;5.05;;;;;;;5.93;100.00;99480.22;4967023;28;20050;-78
2023/03/26 00:30:22;;;;;;;24.13;5.20;;;;;;;6.01;100.00;99491.84;4958153;28;20039;-78
2023/03/26 00:32:47;;;;;;;24.10;5.03;;;;;;;5.99;100.00;99494.63;4957800;28;20031;-77
2023/03/26 00:35:12;;;;;;;21.70;4.00;;;;;;;5.98;100.00;99503.59;4959650;28;20055;-78
2023/03/26 00:37:41;;;;;;;19.20;4.97;;;;;;;6.02;100.00;99509.41;4980122;28;20022;-77
2023/03/26 00:40:09;;;;;;;17.15;3.53;;;;;;;6.02;100.00;99509.41;4961293;28;20312;-77
2023/03/26 00:42:36;;;;;;;20.83;4.80;;;;;;;6.02;100.00;99520.00;4956740;28;20090;-77
2023/03/26 00:45:02;;;;;;;20.75;4.60;;;;;;;6.01;100.00;99519.16;4983130;28;20061;-77
2023/03/26 00:47:28;;;;;;;26.95;5.50;;;;;;;6.05;100.00;99524.97;4957367;28;20030;-78
2023/03/26 00:49:54;;;;;;;24.67;4.93;;;;;;;6.01;100.00;99521.81;4962334;28;20037;-79
2023/03/26 00:52:20;;;;;;;24.83;5.28;;;;;;;5.99;100.00;99515.84;4958443;28;20035;-78
2023/03/26 00:54:52;;;;;;;14.63;3.65;;;;;;;6.01;100.00;99520.97;4948979;28;20047;-78
2023/03/26 00:57:21;;;;;;;21.75;4.63;;;;;;;6.08;100.00;99521.97;4948119;28;20441;-79
2023/03/26 00:59:48;;;;;;;17.48;4.03;;;;;;;6.04;100.00;99520.66;4964407;28;20473;-78
2023/03/26 01:02:17;;;;;;;20.10;5.03;;;;;;;6.03;100.00;99524.31;4957681;28;20043;-77
2023/03/26 01:04:54;;;;;;;19.05;4.97;;;;;;;6.02;100.00;99530.59;4966408;28;20030;-78
2023/03/26 01:07:27;;;;;;;9.15;3.50;;;;;;;6.02;100.00;99530.59;4946121;28;20485;-78
2023/03/26 01:09:54;;;;;;;14.25;3.88;;;;;;;6.00;100.00;99532.59;4957466;28;20058;-78
2023/03/26 01:12:22;;;;;;;21.85;4.65;;;;;;;6.02;100.00;99542.03;4957915;28;20404;-78
2023/03/26 01:14:49;;;;;;;19.92;3.70;;;;;;;6.00;100.00;99543.19;4964822;28;20090;-77
2023/03/26 01:17:16;;;;;;;22.13;4.47;;;;;;;5.97;100.00;99551.44;4958310;28;20069;-77
2023/03/26 01:19:52;;;;;;;23.95;5.22;;;;;;;5.99;100.00;99549.47;4955452;28;20081;-77
2023/03/26 01:22:21;;;;;;;15.27;3.58;;;;;;;6.05;100.00;99559.41;4943805;28;20023;-78
2023/03/26 01:24:51;;;;;;;21.65;4.90;;;;;;;6.03;100.00;99553.44;4964475;28;20084;-77
2023/03/26 01:27:17;;;;;;;17.60;3.80;;;;;;;6.03;100.00;99566.69;4960978;28;20034;-78
2023/03/26 01:30:02;;;;;;;23.27;5.27;;;;;;;6.00;100.00;99562.56;4963331;28;20037;-78
2023/03/26 01:33:13;;;;;;;14.82;4.13;;;;;;;6.01;100.00;99555.44;4947951;28;20134;-77
2023/03/26 01:35:54;;;;;;;21.65;4.18;;;;;;;5.98;100.00;99550.47;4975332;28;20043;-78
2023/03/26 01:38:24;;;;;;;17.05;3.13;;;;;;;6.01;100.00;99556.25;4975153;28;20594;-79
2023/03/26 01:41:16;;;;;;;22.52;5.05;;;;;;;6.01;100.00;99563.38;4956906;28;20038;-79
2023/03/26 01:43:45;;;;;;;20.50;4.88;;;;;;;5.99;100.00;99560.88;4963188;28;20087;-78
2023/03/26 01:46:13;;;;;;;12.73;3.20;;;;;;;5.96;100.00;99570.97;4950294;28;20129;-78
2023/03/26 01:48:42;;;;;;;15.52;3.50;;;;;;;5.93;100.00;99569.47;4973635;23;20097;-86
2023/03/26 01:51:09;;;;;;;13.73;4.22;;;;;;;5.92;100.00;99568.63;4954544;28;20261;-85
2023/03/26 01:53:41;;;;;;;14.20;4.13;;;;;;;5.90;100.00;99572.44;4970573;28;20035;-86
2023/03/26 01:56:45;;;;;;;22.25;3.75;;;;;;;5.85;100.00;99572.06;4967342;28;20031;-86
2023/03/26 02:00:10;;;;;;;13.32;3.75;;;;;;;5.78;100.00;99571.88;4943955;28;20042;-86
2023/03/26 02:02:46;;;;;;;11.73;3.17;;;;;;;5.75;100.00;99571.38;4930980;29;20048;-87
2023/03/26 02:05:34;;;;;;;13.95;3.70;;;;;;;5.74;100.00;99575.84;4923939;29;20039;-86
2023/03/26 02:08:21;;;;;;;15.55;4.10;;;;;;;5.75;100.00;99576.69;4930852;29;20087;-86
2023/03/26 02:10:54;;;;;;;18.60;4.38;;;;;;;5.77;100.00;99564.94;4930473;29;20358;-86
2023/03/26 02:13:20;;;;;;;20.75;3.42;;;;;;;5.72;100.00;99567.22;4930762;29;20131;-86
2023/03/26 02:15:57;;;;;;;17.33;2.78;;;;;;;5.74;100.00;99570.56;4946492;28;20508;-86
2023/03/26 02:18:23;;;;;;;11.60;2.58;;;;;;;5.67;100.00;99570.34;4946250;29;20043;-86
2023/03/26 02:20:51;;;;;;;14.10;2.85;;;;;;;5.71;100.00;99566.41;4914836;29;20039;-87
2023/03/26 02:23:19;;;;;;;20.70;4.65;;;;;;;5.64;100.00;99562.75;4946593;29;20044;-86
2023/03/26 02:25:45;;;;;;;22.10;3.38;;;;;;;5.55;100.00;99554.91;4914330;29;20072;-86
2023/03/26 02:28:10;;;;;;;19.85;4.53;;;;;;;5.66;100.00;99562.56;4914224;29;20504;-86
2023/03/26 02:30:36;;;;;;;26.17;3.87;;;;;;;5.66;100.00;99562.56;4917660;29;20134;-85
2023/03/26 02:33:02;;;;;;;18.35;3.38;;;;;;;5.64;100.00;99553.94;4918259;29;20433;-85
2023/03/26 02:35:36;;;;;;;13.70;2.80;;;;;;;5.64;100.00;99560.09;4931165;29;20043;-87
2023/03/26 02:38:02;;;;;;;14.07;2.97;;;;;;;5.63;100.00;99561.06;4952703;28;20079;-86
2023/03/26 02:40:27;;;;;;;20.90;4.20;;;;;;;5.65;100.00;99561.75;4974419;28;20042;-87
2023/03/26 02:42:54;;;;;;;19.98;3.40;;;;;;;5.63;100.00;99562.91;4974412;28;20027;-87
2023/03/26 02:45:19;;;;;;;8.88;2.95;;;;;;;5.65;100.00;99567.03;4975595;28;20403;-87
2023/03/26 02:48:20;;;;;;;17.38;3.20;;;;;;;5.54;100.00;99559.38;4973079;28;20057;-87
2023/03/26 02:50:53;;;;;;;17.73;3.90;;;;;;;5.58;100.00;99571.31;4972975;28;20492;-87
2023/03/26 02:53:38;;;;;;;14.90;3.45;;;;;;;5.60;100.00;99574.63;4974297;28;20031;-86
2023/03/26 02:56:29;;;;;;;10.98;3.33;;;;;;;5.65;100.00;99584.75;4957160;28;20435;-86
2023/03/26 02:59:10;;;;;;;9.07;2.47;;;;;;;5.58;100.00;99573.13;4975589;28;20022;-86
2023/03/26 03:01:41;;;;;;;13.70;3.53;;;;;;;5.61;100.00;99576.28;4973408;28;20022;-86
2023/03/26 03:04:09;;;;;;;11.48;3.03;;;;;;;5.56;100.00;99569.81;4989953;28;20035;-85
2023/03/26 03:06:37;;;;;;;9.98;2.50;;;;;;;5.46;100.00;99564.66;4973592;28;20041;-85
2023/03/26 03:09:09;;;;;;;12.70;2.70;;;;;;;5.43;100.00;99563.16;4973034;28;20090;-85
2023/03/26 03:11:35;;;;;;;10.85;3.03;;;;;;;5.48;100.00;99563.50;4973410;28;20793;-86
2023/03/26 03:14:00;;;;;;;15.05;2.45;;;;;;;5.47;100.00;99564.47;4973357;28;20047;-86
2023/03/26 03:16:28;;;;;;;10.38;2.47;;;;;;;5.46;100.00;99565.47;4973847;28;20034;-86
2023/03/26 03:18:56;;;;;;;13.70;2.88;;;;;;;5.53;100.00;99575.44;4973191;28;20551;-85
2023/03/26 03:21:27;;;;;;;14.30;3.00;;;;;;;5.46;100.00;99562.81;4990033;28;20023;-88
2023/03/26 03:23:53;;;;;;;5.20;2.30;;;;;;;5.41;100.00;99572.25;4989746;28;20034;-86
2023/03/26 03:26:22;;;;;;;7.72;2.17;;;;;;;5.36;100.00;99563.91;4989799;28;20603;-87
2023/03/26 03:28:53;;;;;;;9.57;2.88;;;;;;;5.39;100.00;99582.16;4973001;28;20030;-85
2023/03/26 03:31:18;;;;;;;13.57;2.67;;;;;;;5.34;100.00;99566.75;4974831;28;20034;-87
2023/03/26 03:33:45;;;;;;;13.40;3.23;;;;;;;5.31;100.00;99567.03;4993047;28;20077;-87
2023/03/26 03:36:20;;;;;;;13.25;2.65;;;;;;;5.36;100.00;99582.44;4992747;28;20293;-86
2023/03/26 03:38:47;;;;;;;6.63;2.50;;;;;;;5.35;100.00;99578.97;4989145;28;20027;-87
2023/03/26 03:41:17;;;;;;;7.25;1.88;;;;;;;5.31;100.00;99577.63;4991281;28;20038;-86
2023/03/26 03:43:44;;;;;;;11.68;2.50;;;;;;;5.28;100.00;99567.34;4987938;28;20033;-86
2023/03/26 03:46:14;;;;;;;9.88;2.33;;;;;;;5.23;100.00;99573.13;4973282;28;20746;-85
2023/03/26 03:48:48;;;;;;;12.60;2.38;;;;;;;5.10;100.00;99567.41;4974981;28;20093;-85
2023/03/26 03:51:17;;;;;;;13.43;1.90;;;;;;;5.07;100.00;99568.56;4974806;28;20121;-86
2023/03/26 03:53:50;;;;;;;11.65;2.60;;;;;;;5.09;100.00;99571.06;4974283;28;20050;-86
2023/03/26 03:56:25;;;;;;;;;;;;;;;5.03;100.00;99588.38;4975704;28;20053;-86
2023/03/26 03:59:17;;;;;;;13.40;1.85;;;;;;;4.98;100.00;99572.13;4972546;28;19921;-86
2023/03/26 04:01:45;;;;;;;10.77;2.45;;;;;;;4.94;100.00;99570.81;4973372;28;20023;-87
2023/03/26 04:04:20;;;;;;;12.48;2.10;;;;;;;4.91;100.00;99568.44;4973394;28;20022;-85
2023/03/26 04:07:12;;;;;;;15.32;2.42;;;;;;;4.86;100.00;99566.25;4971843;28;20037;-85
2023/03/26 04:10:13;;;;;;;19.48;2.75;;;;;;;4.79;100.00;99559.94;4973858;28;20038;-86
2023/03/26 04:12:57;;;;;;;7.90;1.92;;;;;;;4.72;100.00;99568.66;4986069;28;20194;-86
2023/03/26 04:15:39;;;;;;;7.75;2.65;;;;;;;4.71;100.00;99580.22;4974093;28;20045;-86
2023/03/26 04:18:09;;;;;;;13.95;2.15;;;;;;;4.69;100.00;99579.53;4974126;28;20399;-86
2023/03/26 04:20:45;;;;;;;6.70;1.77;;;;;;;4.61;100.00;99578.50;4991265;28;20034;-87
2023/03/26 04:23:16;;;;;;;14.60;2.85;;;;;;;4.60;100.00;99597.97;4991186;28;20054;-86
2023/03/26 04:25:52;;;;;;;8.57;1.77;;;;;;;4.60;100.00;99581.28;4975040;28;20101;-87
2023/03/26 04:28:34;;;;;;;5.57;1.58;;;;;;;4.46;100.00;99593.22;4974815;28;20034;-87
2023/03/26 04:31:22;;;;;;;8.18;1.52;;;;;;;4.34;100.00;99584.69;4991081;28;20023;-87
2023/03/26 04:33:53;;;;;;;6.68;1.10;;;;;;;4.35;100.00;99581.03;4975494;28;20031;-87
2023/03/26 04:36:25;;;;;;;6.93;1.42;;;;;;;4.37;100.00;99591.47;4975008;28;20038;-87
2023/03/26 04:38:52;;;;;;;4.05;1.25;;;;;;;4.29;100.00;99567.63;4991086;28;20054;-87
2023/03/26 04:41:26;;;;;;;6.97;1.63;;;;;;;4.34;100.00;99578.56;4975068;28;20034;-87
2023/03/26 04:44:04;;;;;;;14.75;2.20;;;;;;;4.35;100.00;99577.56;4990577;28;20170;-87
2023/03/26 04:46:42;;;;;;;;;;;;;;;4.38;100.00;99567.53;4975791;28;20111;-87
2023/03/26 04:49:14;;;;;;;6.20;1.58;;;;;;;4.21;100.00;99563.94;4983355;28;19945;-87
2023/03/26 04:51:40;;;;;;;13.13;1.33;;;;;;;4.19;100.00;99562.38;4986106;28;20031;-87
2023/03/26 04:54:21;;;;;;;13.88;1.98;;;;;;;4.16;100.00;99552.13;4990891;28;20278;-87
2023/03/26 04:57:07;;;;;;;10.60;1.63;;;;;;;4.22;100.00;99557.66;4973969;28;20041;-87
2023/03/26 04:59:48;;;;;;;18.42;2.30;;;;;;;4.25;100.00;99545.13;4974680;28;20134;-87
2023/03/26 05:02:14;;;;;;;4.97;1.90;;;;;;;4.26;100.00;99546.75;4974029;28;20054;-87
2023/03/26 05:05:01;;;;;;;4.03;1.33;;;;;;;4.28;100.00;99550.91;4968256;28;20217;-85
2023/03/26 05:07:29;;;;;;;11.27;1.40;;;;;;;4.28;100.00;99550.09;4971244;28;20400;-87
2023/03/26 05:09:56;;;;;;;11.77;2.38;;;;;;;4.17;100.00;99546.72;4970201;28;20041;-86
2023/03/26 05:12:42;;;;;;;10.93;2.42;;;;;;;4.26;100.00;99547.63;4970514;28;20038;-85
2023/03/26 05:15:15;;;;;;;16.15;3.60;;;;;;;4.19;100.00;99543.91;4970123;28;20495;-86
2023/03/26 05:18:01;;;;;;;13.40;3.67;;;;;;;4.23;100.00;99547.91;4950554;28;20039;-85
2023/03/26 05:20:58;;;;;;;17.77;3.47;;;;;;;4.18;100.00;99537.78;4930738;29;20043;-87
2023/03/26 05:23:25;;;;;;;23.38;3.97;;;;;;;4.15;100.00;99530.16;4930534;29;20028;-85
2023/03/26 05:26:02;;;;;;;16.77;1.85;;;;;;;4.10;100.00;99521.88;4920840;29;20120;-85
2023/03/26 05:28:27;;;;;;;21.63;2.70;;;;;;;4.00;100.00;99499.97;4930242;29;20134;-85
2023/03/26 05:31:05;;;;;;;21.42;3.35;;;;;;;4.07;100.00;99501.03;4930742;29;20050;-85
2023/03/26 05:33:35;;;;;;;16.65;3.50;;;;;;;3.88;100.00;99486.16;4930865;29;20441;-85
2023/03/26 05:36:14;;;;;;;14.98;2.70;;;;;;;3.91;100.00;99474.47;4926247;29;20500;-86
2023/03/26 05:38:48;;;;;;;23.90;3.70;;;;;;;3.79;100.00;99458.00;4930306;29;20066;-86
2023/03/26 05:41:18;;;;;;;24.67;2.97;;;;;;;3.76;100.00;99445.13;4929794;29;20035;-85
2023/03/26 05:43:46;;;;;;;24.73;3.35;;;;;;;3.74;100.00;99447.91;4930207;29;20043;-85
2023/03/26 05:46:16;;;;;;;15.20;4.18;;;;;;;3.65;100.00;99432.13;4930441;29;20019;-85
2023/03/26 05:48:42;;;;;;;26.90;4.40;;;;;;;3.66;100.00;99424.09;4929818;29;20058;-87
2023/03/26 05:51:08;;;;;;;;;;;;;;;3.66;100.00;99408.25;4930347;29;20034;-86
2023/03/26 05:53:35;;;;;;;12.02;3.03;;;;;;;3.53;100.00;99384.84;4930287;29;20009;-85
2023/03/26 05:56:24;;;;;;;17.60;3.70;;;;;;;3.68;100.00;99377.25;4924527;29;20153;-87
2023/03/26 05:59:08;;;;;;;19.15;3.20;;;;;;;3.69;100.00;99365.69;4950887;28;20598;-85
2023/03/26 06:01:43;;;;;;;15.50;2.83;;;;;;;3.68;100.00;99355.31;4950698;28;20035;-87
2023/03/26 06:04:28;;;;;;;23.60;3.65;;;;;;;3.84;100.00;99344.03;4952469;28;20027;-85
2023/03/26 06:07:25;;;;;;;20.45;3.33;;;;;;;4.04;100.00;99353.44;4977974;28;20571;-85
2023/03/26 06:10:13;;;;;;;29.17;3.38;;;;;;;4.10;100.00;99329.06;4972221;28;20039;-85
2023/03/26 06:12:39;;;;;;;17.45;2.72;;;;;;;4.10;100.00;99292.06;4969189;28;20152;-86
2023/03/26 06:15:06;;;;;;;24.73;5.20;;;;;;;3.95;100.00;99254.84;4969486;28;20103;-85
2023/03/26 06:17:42;;;;;;;23.88;3.50;;;;;;;3.98;100.00;99238.69;4985661;28;20039;-86
2023/03/26 06:20:14;;;;;;;19.80;3.80;;;;;;;3.94;100.00;99220.69;4969894;28;20031;-86
2023/03/26 06:22:42;;;;;;;26.17;6.38;;;;;;;3.94;100.00;99216.22;4969966;28;20575;-86
2023/03/26 06:25:17;;;;;;;19.73;4.88;;;;;;;3.77;100.00;99151.97;4969802;28;20030;-85
2023/03/26 06:28:01;;;;;;;20.98;4.57;;;;;;;3.74;100.00;99075.69;4969849;28;20062;-86
2023/03/26 06:30:39;;;;;;;24.25;4.63;;;;;;;3.80;100.00;98998.50;4969925;28;20225;-86
2023/03/26 06:33:12;;;;;;;24.50;4.47;;;;;;;3.64;100.00;98898.19;4970584;28;20030;-85
2023/03/26 06:35:44;;;;;;;19.17;3.30;;;;;;;3.83;100.00;98864.56;4970770;28;20035;-84
2023/03/26 06:38:12;;;;;;;25.75;4.07;;;;;;;4.50;100.00;98885.44;4969663;28;20169;-84
2023/03/26 06:40:37;;;;;;;29.30;4.78;;;;;;;4.39;100.00;98746.56;4969463;28;20113;-85
2023/03/26 06:43:35;;;;;;;21.25;3.28;;;;;;;4.21;100.00;98694.81;4978302;28;20073;-85
2023/03/26 06:46:15;;;;;;;52.40;4.85;;;;;;;3.93;100.00;98615.22;4991928;28;20007;-83
2023/03/26 06:48:59;;;;;;;19.25;3.55;;;;;;;3.99;100.00;98655.94;4982337;28;20105;-84
2023/03/26 06:51:45;;;;;;;19.80;3.53;;;;;;;4.11;100.00;98688.09;4972096;28;20113;-85
2023/03/26 06:54:46;;;;;;;22.55;3.28;;;;;;;4.29;100.00;98701.06;4949816;28;20542;-85
2023/03/26 06:57:34;;;;;;;23.52;3.45;;;;;;;4.35;100.00;98721.50;4949727;29;20043;-85
2023/03/26 07:00:19;;;;;;;13.15;2.13;;;;;;;4.30;100.00;98618.16;4949054;29;20050;-85
2023/03/26 07:03:04;;;;;;;13.45;3.30;;;;;;;4.34;100.00;98542.84;4949233;29;20055;-84
2023/03/26 07:05:48;;;;;;;19.23;3.22;;;;;;;4.63;100.00;98531.53;4944583;29;20054;-86
2023/03/26 07:08:19;;;;;;;27.00;4.22;;;;;;;4.75;100.00;98590.09;4949121;29;20071;-84
2023/03/26 07:11:03;;;;;;;20.95;3.55;;;;;;;4.61;100.00;98509.75;4949825;29;20284;-84
2023/03/26 07:13:52;;;;;;;22.23;3.75;;;;;;;4.86;100.00;98523.56;4965128;28;20091;-84
2023/03/26 07:16:42;;;;;;;20.13;4.85;;;;;;;5.15;100.00;98527.25;4952697;29;20043;-86
2023/03/26 07:19:30;;;;;;;20.13;4.53;;;;;;;4.95;100.00;98287.16;4953220;29;20055;-87
2023/03/26 07:21:56;;;;;;;14.33;3.73;;;;;;;5.08;100.00;98366.66;4952816;29;20081;-84
2023/03/26 07:24:51;;;;;;;23.67;3.60;;;;;;;4.81;100.00;98161.94;4929879;29;20050;-85
2023/03/26 07:27:45;;;;;;;16.83;4.28;;;;;;;4.96;100.00;98175.06;4948219;28;20615;-87
2023/03/26 07:30:28;;;;;;;15.85;3.78;;;;;;;5.09;100.00;98147.94;4985353;23;20128;-73
2023/03/26 07:33:36;;;;;;;23.02;4.82;;;;;;;5.11;100.00;98108.09;4956283;28;20617;-73
2023/03/26 07:36:32;;;;;;;25.55;4.30;;;;;;;5.63;100.00;98085.63;4965491;28;20035;-77
2023/03/26 07:39:39;;;;;;;16.75;3.83;;;;;;;5.59;100.00;97811.75;4933839;29;20126;-75
2023/03/26 07:42:52;;;;;;;22.25;3.60;;;;;;;5.55;100.00;97742.56;4942385;29;20610;-75
2023/03/26 07:48:39;;;;;;;24.02;3.22;;;;;;;7.02;100.00;98004.78;4930422;29;20043;-77
2023/03/26 07:51:10;;;;;;;18.67;3.92;;;;;;;6.83;100.00;97685.56;4919244;29;20294;-78
2023/03/26 07:53:59;;;;;;;22.52;3.83;;;;;;;6.63;100.00;97450.56;4926726;29;20055;-77
2023/03/26 07:56:54;;;;;;;15.60;2.92;;;;;;;6.63;100.00;97571.69;4932479;28;20036;-78
2023/03/26 08:00:07;;;;;;;15.85;2.97;;;;;;;6.68;100.00;97495.78;4940072;28;20035;-77
2023/03/26 08:03:23;;;;;;;19.38;3.00;;;;;;;6.68;100.00;97379.16;4960392;28;20081;-76
2023/03/26 08:06:31;;;;;;;24.13;4.07;;;;;;;6.28;100.00;97180.03;4949096;28;20106;-80
2023/03/26 08:09:25;;;;;;;22.35;3.58;;;;;;;6.36;100.00;97394.31;4936368;28;20042;-77
2023/03/26 08:12:40;;;;;;;23.23;3.20;;;;;;;7.48;100.00;97593.22;4951653;28;20041;-77
2023/03/26 08:15:06;;;;;;;;;;;;;;;7.73;100.00;97533.94;4960818;28;20031;-77
2023/03/26 08:17:50;;;;;;;20.65;4.75;;;;;;;7.88;100.00;97610.56;4936012;29;19941;-78
2023/03/26 08:20:21;;;;;;;23.45;5.30;;;;;;;7.78;99.92;97337.56;4949001;28;20570;-76
2023/03/26 08:22:59;;;;;;;21.10;4.30;;;;;;;7.02;100.00;97256.78;4945137;28;20507;-80
2023/03/26 08:25:39;;;;;;;17.27;3.53;;;;;;;7.42;100.00;97474.63;4943181;28;20035;-79
2023/03/26 08:28:38;;;;;;;16.27;4.20;;;;;;;7.94;99.44;97498.94;4948656;28;20476;-78
2023/03/26 08:31:04;;;;;;;13.55;3.63;;;;;;;8.06;96.44;97374.09;4941962;28;20448;-78
2023/03/26 08:33:31;;;;;;;21.55;3.60;;;;;;;7.92;95.28;97299.13;4941799;28;20093;-77
2023/03/26 08:35:56;;;;;;;16.25;3.05;;;;;;;7.80;94.79;97250.50;4942134;28;20038;-78
2023/03/26 08:38:22;;;;;;;16.13;3.17;;;;;;;7.49;94.88;97202.00;4938258;28;20046;-76
2023/03/26 08:41:06;;;;;;;14.30;3.83;;;;;;;7.40;94.62;97248.50;4947263;28;20290;-76
2023/03/26 08:43:32;;;;;;;20.83;2.90;;;;;;;7.27;94.99;97268.06;4939161;28;20654;-79
2023/03/26 08:46:48;;;;;;;12.80;4.07;;;;;;;7.83;96.61;97611.22;4940857;28;20078;-81
2023/03/26 08:49:45;;;;;;;19.88;4.38;;;;;;;7.49;93.80;97268.34;4856703;29;20495;-80
2023/03/26 08:52:48;;;;;;;22.77;3.95;;;;;;;7.15;92.84;97177.00;4856609;29;20132;-77
2023/03/26 08:55:35;;;;;;;18.67;3.72;;;;;;;7.82;92.64;97374.06;4871791;29;20045;-77
2023/03/26 08:58:36;;;;;;;16.98;3.25;;;;;;;8.72;88.38;97188.69;4864542;29;20177;-79
2023/03/26 09:01:33;;;;;;;20.67;3.28;;;;;;;9.07;86.55;97113.22;4816988;29;20054;-77
2023/03/26 09:04:07;;;;;;;16.77;3.55;;;;;;;9.24;82.54;96682.84;4817512;29;20509;-78
2023/03/26 09:07:08;;;;;;;18.67;2.45;;;;;;;9.62;84.05;97058.38;4801073;29;20106;-79
2023/03/26 09:10:04;;;;;;;18.33;3.42;;;;;;;9.41;80.71;96628.69;4800101;29;20042;-78
2023/03/26 09:12:34;;;;;;;;;;;;;;;9.64;79.79;96684.22;4801355;29;20047;-77
2023/03/26 09:15:30;;;;;;;20.30;3.30;;;;;;;9.27;79.02;96506.72;4816774;29;19917;-78
2023/03/26 09:18:02;;;;;;;16.42;3.35;;;;;;;8.97;80.20;96655.50;4801267;29;20034;-77
2023/03/26 09:20:53;;;;;;;12.98;3.75;;;;;;;8.49;80.61;96647.28;4800733;29;20415;-77
2023/03/26 09:24:07;;;;;;;24.17;3.38;;;;;;;8.68;79.56;96605.19;4804058;29;20046;-77
2023/03/26 09:27:06;;;;;;;19.10;3.67;;;;;;;9.43;80.52;97090.59;4840835;29;20467;-79
2023/03/26 09:30:14;;;;;;;20.38;3.70;;;;;;;10.71;76.54;96940.09;4869417;29;20156;-77
2023/03/26 09:33:10;;;;;;;19.50;3.78;;;;;;;11.28;76.85;97109.47;4846162;29;20052;-77
2023/03/26 09:35:49;;;;;;;20.75;3.30;;;;;;;10.78;75.88;96796.63;4919140;29;20130;-76
2023/03/26 09:38:35;;;;;;;9.55;3.00;;;;;;;10.89;73.63;96600.03;4944044;28;20039;-76
2023/03/26 09:41:22;;;;;;;20.45;4.55;;;;;;;11.53;73.39;96839.06;4947515;28;20141;-76
2023/03/26 09:44:29;;;;;;;16.13;3.65;;;;;;;11.75;71.55;96659.00;4938133;28;20500;-77
2023/03/26 09:47:26;;;;;;;11.27;2.85;;;;;;;11.10;69.58;96163.13;4946085;28;20090;-76
2023/03/26 09:50:12;;;;;;;13.90;3.55;;;;;;;12.01;69.53;96574.22;4938087;28;20092;-77
2023/03/26 09:53:07;;;;;;;13.23;3.08;;;;;;;11.82;67.62;96237.31;4936590;28;20058;-76
2023/03/26 09:56:03;;;;;;;13.98;2.92;;;;;;;11.34;65.54;95810.78;4940157;28;20027;-76
2023/03/26 09:58:55;;;;;;;10.38;2.83;;;;;;;11.60;65.97;96056.16;4936118;28;20404;-76
2023/03/26 10:02:00;;;;;;;10.63;2.60;;;;;;;11.74;64.57;95984.94;4928309;29;20477;-76
2023/03/26 10:04:59;;;;;;;;;;;;;;;11.52;64.25;95971.31;4936330;28;20106;-76
2023/03/26 10:07:30;;;;;;;14.25;3.60;;;;;;;12.23;65.19;96410.78;4940324;28;20298;-76
2023/03/26 10:10:03;;;;;;;17.45;3.03;;;;;;;11.13;64.56;95897.53;4938488;28;20043;-77
2023/03/26 10:12:36;;;;;;;14.98;3.70;;;;;;;11.33;65.17;96166.97;4937469;28;20452;-76
2023/03/26 10:15:31;;;;;;;12.85;3.53;;;;;;;11.26;65.45;96169.16;4939749;28;20039;-77
2023/03/26 10:17:59;;;;;;;;;;;;;;;10.75;66.08;96180.94;4949555;28;20035;-75
2023/03/26 10:20:56;;;;;;;18.85;3.80;;;;;;;10.52;66.67;96322.91;4948687;28;19937;-75
2023/03/26 10:23:36;;;;;;;16.45;3.67;;;;;;;11.93;66.43;96820.69;4889191;29;20047;-76
2023/03/26 10:26:23;;;;;;;16.10;2.40;;;;;;;11.62;62.80;96021.94;4908149;29;20115;-75
2023/03/26 10:29:32;;;;;;;18.20;2.78;;;;;;;12.35;63.64;96586.94;4904788;29;20135;-76
2023/03/26 10:32:16;;;;;;;16.55;2.80;;;;;;;12.81;60.89;96276.22;4907699;29;20047;-76
2023/03/26 10:35:10;;;;;;;11.93;2.90;;;;;;;13.65;60.00;96444.47;4891710;29;20048;-77
2023/03/26 10:37:45;;;;;;;13.48;3.75;;;;;;;12.52;60.21;95988.16;4914422;29;20545;-75
2023/03/26 10:40:42;;;;;;;14.65;2.63;;;;;;;13.26;58.63;96082.03;4910257;29;20044;-76
2023/03/26 10:43:18;;;;;;;14.50;2.58;;;;;;;12.68;56.80;95537.41;4910846;29;20087;-77
2023/03/26 10:46:01;;;;;;;11.75;2.30;;;;;;;12.83;58.41;95975.13;4884133;29;20108;-80
2023/03/26 10:48:45;;;;;;;15.43;3.65;;;;;;;14.32;58.01;96576.63;4898572;29;20939;-76
2023/03/26 10:51:19;;;;;;;15.85;2.08;;;;;;;13.88;56.23;96020.13;4894419;29;20044;-77
2023/03/26 10:54:00;;;;;;;17.33;3.83;;;;;;;13.00;55.92;95551.66;4911168;29;20051;-77
2023/03/26 10:56:33;;;;;;;11.35;2.80;;;;;;;12.09;58.93;95897.38;4908948;29;20042;-77
2023/03/26 10:59:13;;;;;;;11.88;2.22;;;;;;;13.91;57.61;96582.50;4912544;29;20068;-77
2023/03/26 11:02:17;;;;;;;17.73;2.50;;;;;;;13.03;56.69;95923.09;4944187;29;20031;-76
2023/03/26 11:05:07;;;;;;;12.43;3.22;;;;;;;13.67;57.39;96359.22;4894702;29;20034;-77
2023/03/26 11:07:55;;;;;;;13.85;2.97;;;;;;;13.83;55.76;96172.97;4891979;29;20048;-79
2023/03/26 11:10:38;;;;;;;9.75;2.30;;;;;;;13.44;55.75;96032.19;4888531;29;20032;-76
2023/03/26 11:13:50;;;;;;;14.02;3.42;;;;;;;13.95;55.85;96328.00;4873991;29;20036;-76
2023/03/26 11:16:27;;;;;;;10.63;1.80;;;;;;;14.43;55.62;96498.69;4888335;29;20040;-75
2023/03/26 11:19:01;;;;;;;18.52;2.65;;;;;;;13.36;53.44;95571.44;4894477;29;20488;-77
2023/03/26 11:21:56;;;;;;;12.25;2.15;;;;;;;13.23;53.82;95741.75;4894725;29;20044;-76
2023/03/26 11:24:49;;;;;;;19.27;3.17;;;;;;;13.90;55.20;96253.81;4889268;29;20694;-76
2023/03/26 11:27:21;;;;;;;18.55;3.28;;;;;;;14.06;54.72;96312.56;4884193;29;20029;-76
2023/03/26 11:30:15;;;;;;;14.75;3.25;;;;;;;14.58;54.00;96321.34;4879022;29;20047;-76
2023/03/26 11:32:49;;;;;;;17.95;3.83;;;;;;;13.76;53.49;95875.09;4879259;29;20051;-76
2023/03/26 11:35:34;;;;;;;17.88;2.83;;;;;;;12.98;54.83;95877.69;4904159;29;20143;-76
2023/03/26 11:38:11;;;;;;;11.40;3.05;;;;;;;13.08;54.67;95989.16;4921604;28;20043;-77
2023/03/26 11:40:45;;;;;;;11.32;2.92;;;;;;;12.47;54.02;95627.22;4969285;28;20856;-77
2023/03/26 11:43:25;;;;;;;14.05;3.30;;;;;;;12.40;54.39;95747.16;4940549;28;20053;-76
2023/03/26 11:45:50;;;;;;;11.48;2.65;;;;;;;13.30;55.58;96353.56;4938410;28;20653;-76
2023/03/26 11:48:27;;;;;;;13.43;3.25;;;;;;;13.64;53.11;96119.44;4951389;28;20018;-77
2023/03/26 11:51:04;;;;;;;11.13;2.83;;;;;;;13.09;54.02;96014.84;4953289;28;20484;-77
2023/03/26 11:53:33;;;;;;;11.13;2.95;;;;;;;14.42;54.23;96693.78;4953110;28;20035;-76
2023/03/26 11:56:33;;;;;;;9.13;3.13;;;;;;;13.84;52.83;96085.34;4952979;28;20479;-77
2023/03/26 11:59:04;;;;;;;17.17;2.63;;;;;;;13.26;53.73;95990.19;4919735;28;20050;-78
2023/03/26 12:01:50;;;;;;;12.10;2.90;;;;;;;12.63;54.69;95938.78;4970399;28;20613;-75
2023/03/26 12:04:23;;;;;;;10.50;2.83;;;;;;;12.59;55.40;96118.88;4948662;28;20082;-78
2023/03/26 12:06:55;;;;;;;9.15;2.10;;;;;;;12.18;54.85;95863.56;4966612;28;20039;-78
2023/03/26 12:09:22;;;;;;;9.57;2.58;;;;;;;12.92;54.34;96164.47;4952907;28;20035;-78
2023/03/26 12:11:51;;;;;;;15.98;3.13;;;;;;;13.18;54.63;96392.50;4952989;28;20035;-78
2023/03/26 12:14:21;;;;;;;10.20;2.50;;;;;;;13.45;54.79;96453.56;4953438;28;20094;-78
2023/03/26 12:17:03;;;;;;;15.40;2.75;;;;;;;12.55;54.83;95995.63;4958645;28;20494;-80
2023/03/26 12:19:41;;;;;;;9.65;2.22;;;;;;;12.62;54.75;96079.00;4931086;29;20530;-78
2023/03/26 12:22:29;;;;;;;10.25;2.65;;;;;;;11.40;55.99;95760.78;4951601;28;20027;-78
2023/03/26 12:25:19;;;;;;;15.45;3.03;;;;;;;10.78;56.39;95708.25;4942027;28;20039;-79
2023/03/26 12:27:49;;;;;;;13.32;2.67;;;;;;;11.66;57.16;96367.56;4939860;28;20035;-78